Time;durP1;ratioP1;P1;durP2;ratioP2;P2;SDS_P1;SDS_P2;PMS_P1;PMS_P2;Temp;Humidity;BMP_temperature;BMP_pressure;BME280_temperature;BME280_humidity;BME280_pressure;Samples;Min_cycle;Max_cycle;Signal;HPM_P1;HPM_P2
2023/07/30 00:02:22;;;;;;;6.63;4.95;;;20.50;85.30;;;;;;4985339;28;20073;-71
2023/07/30 00:04:48;;;;;;;6.70;5.30;;;20.50;85.20;;;;;;4983529;28;20120;-71
2023/07/30 00:07:14;;;;;;;9.05;5.43;;;20.50;85.30;;;;;;4984923;28;20470;-70
2023/07/30 00:09:40;;;;;;;9.13;5.28;;;20.40;85.30;;;;;;4980703;28;20031;-71
2023/07/30 00:12:08;;;;;;;7.75;5.68;;;20.50;85.30;;;;;;4985069;28;20193;-71
2023/07/30 00:14:35;;;;;;;7.65;5.40;;;20.50;85.30;;;;;;4983900;28;20041;-71
2023/07/30 00:17:01;;;;;;;7.13;5.25;;;20.40;85.40;;;;;;4984566;28;20077;-70
2023/07/30 00:19:27;;;;;;;6.72;5.28;;;20.40;85.40;;;;;;4983957;28;20041;-71
2023/07/30 00:21:53;;;;;;;8.95;5.47;;;20.40;85.20;;;;;;4983812;28;20030;-71
2023/07/30 00:24:19;;;;;;;7.15;5.13;;;20.40;85.20;;;;;;4984262;28;20037;-70
2023/07/30 00:26:45;;;;;;;8.63;5.38;;;20.30;85.50;;;;;;4984056;28;20421;-71
2023/07/30 00:29:11;;;;;;;7.88;5.22;;;20.40;85.50;;;;;;4981364;28;20086;-71
2023/07/30 00:31:37;;;;;;;7.78;4.90;;;20.40;85.40;;;;;;4982590;28;20035;-70
2023/07/30 00:34:03;;;;;;;5.88;5.18;;;20.40;85.40;;;;;;4983931;28;20434;-71
2023/07/30 00:36:28;;;;;;;8.73;4.97;;;20.40;85.60;;;;;;4984354;28;20034;-71
2023/07/30 00:38:54;;;;;;;9.50;5.28;;;20.30;85.40;;;;;;4984520;28;20118;-71
2023/07/30 00:41:20;;;;;;;8.00;5.32;;;20.30;85.30;;;;;;4984315;28;20042;-70
2023/07/30 00:43:46;;;;;;;7.75;5.15;;;20.30;85.50;;;;;;4984144;28;20043;-71
2023/07/30 00:46:15;;;;;;;6.43;5.35;;;20.30;85.40;;;;;;4983075;28;20105;-71
2023/07/30 00:48:41;;;;;;;7.80;5.70;;;20.30;85.40;;;;;;4984396;28;20066;-70
2023/07/30 00:51:09;;;;;;;9.35;5.60;;;20.20;85.50;;;;;;4982538;28;20041;-71
2023/07/30 00:53:37;;;;;;;9.82;5.70;;;20.20;85.70;;;;;;4983864;28;20469;-70
2023/07/30 00:56:03;;;;;;;8.65;5.47;;;20.20;85.80;;;;;;4983349;28;20042;-71
2023/07/30 00:58:30;;;;;;;7.57;5.25;;;20.10;85.90;;;;;;4995857;28;20468;-70
2023/07/30 01:00:58;;;;;;;8.07;5.53;;;20.20;85.70;;;;;;4983014;28;20182;-70
2023/07/30 01:03:24;;;;;;;6.72;5.70;;;20.20;85.50;;;;;;4967272;28;20054;-71
2023/07/30 01:05:50;;;;;;;8.85;6.00;;;20.20;85.50;;;;;;4982041;28;20628;-70
2023/07/30 01:08:16;;;;;;;10.43;5.57;;;20.20;85.50;;;;;;4981293;28;20523;-70
2023/07/30 01:10:43;;;;;;;9.10;5.55;;;20.10;85.60;;;;;;4964170;28;20398;-70
2023/07/30 01:13:11;;;;;;;7.43;5.35;;;20.10;85.90;;;;;;4988080;28;20088;-70
2023/07/30 01:15:38;;;;;;;10.20;6.03;;;20.10;86.10;;;;;;4996424;28;20117;-69
2023/07/30 01:18:04;;;;;;;7.70;5.03;;;20.10;85.90;;;;;;4986545;28;20054;-70
2023/07/30 01:20:31;;;;;;;8.80;5.82;;;20.10;85.70;;;;;;4986361;28;20402;-70
2023/07/30 01:22:59;;;;;;;10.15;6.05;;;20.10;85.50;;;;;;4985177;28;20034;-71
2023/07/30 01:25:29;;;;;;;8.52;5.78;;;20.10;85.70;;;;;;4985555;28;20130;-70
2023/07/30 01:28:00;;;;;;;12.38;6.60;;;20.10;85.70;;;;;;4987603;28;20034;-71
2023/07/30 01:30:39;;;;;;;7.43;6.18;;;20.10;85.90;;;;;;4982801;28;20034;-70
2023/07/30 01:33:06;;;;;;;9.63;5.75;;;20.00;85.90;;;;;;4987678;28;20405;-70
2023/07/30 01:35:34;;;;;;;8.80;5.65;;;20.10;86.10;;;;;;4997002;28;20030;-70
2023/07/30 01:38:03;;;;;;;7.80;5.78;;;20.10;86.00;;;;;;4997060;28;20046;-70
2023/07/30 01:40:29;;;;;;;8.88;5.50;;;20.10;86.00;;;;;;5005938;28;20421;-70
2023/07/30 01:42:55;;;;;;;8.93;5.82;;;20.10;86.30;;;;;;5005065;28;20081;-70
2023/07/30 01:45:21;;;;;;;7.70;5.90;;;20.00;86.30;;;;;;5005880;28;20076;-70
2023/07/30 01:47:47;;;;;;;9.05;6.07;;;20.00;86.40;;;;;;5007077;28;20037;-70
2023/07/30 01:50:13;;;;;;;9.20;5.95;;;20.00;86.60;;;;;;5002713;28;20034;-70
2023/07/30 01:52:39;;;;;;;9.50;6.10;;;20.00;86.70;;;;;;4995143;28;20027;-69
2023/07/30 01:55:06;;;;;;;11.82;6.65;;;20.00;86.30;;;;;;4987478;28;20038;-69
2023/07/30 01:57:32;;;;;;;9.35;5.88;;;20.00;86.20;;;;;;5004323;28;20066;-70
2023/07/30 01:59:58;;;;;;;7.53;6.25;;;19.90;86.40;;;;;;4987345;28;20513;-69
2023/07/30 02:02:24;;;;;;;7.15;6.05;;;20.00;86.60;;;;;;5001098;28;20069;-70
2023/07/30 02:04:50;;;;;;;7.97;6.10;;;19.90;86.60;;;;;;5004357;28;20034;-69
2023/07/30 02:07:16;;;;;;;12.57;6.43;;;19.90;86.80;;;;;;5003924;28;20834;-69
2023/07/30 02:09:42;;;;;;;11.43;6.22;;;19.90;86.50;;;;;;5004210;28;20033;-70
2023/07/30 02:12:08;;;;;;;7.78;6.20;;;20.00;86.30;;;;;;5004691;28;20746;-71
2023/07/30 02:14:34;;;;;;;9.40;6.10;;;20.00;86.30;;;;;;5002970;28;20303;-71
2023/07/30 02:17:01;;;;;;;9.77;6.03;;;20.00;86.40;;;;;;5004434;28;20081;-71
2023/07/30 02:19:27;;;;;;;10.80;6.20;;;20.00;86.40;;;;;;5004644;28;20689;-71
2023/07/30 02:21:53;;;;;;;7.07;5.97;;;20.00;86.50;;;;;;5003584;28;20048;-71
2023/07/30 02:24:18;;;;;;;7.10;5.82;;;20.00;86.40;;;;;;5002840;28;20026;-69
2023/07/30 02:26:45;;;;;;;8.70;5.85;;;20.00;86.50;;;;;;4988435;28;20038;-70
2023/07/30 02:29:11;;;;;;;11.63;7.28;;;20.00;86.50;;;;;;4985008;28;20030;-70
2023/07/30 02:31:36;;;;;;;9.57;6.88;;;20.10;86.40;;;;;;4986053;28;20042;-70
2023/07/30 02:34:02;;;;;;;9.30;6.45;;;20.10;86.40;;;;;;4985176;28;20043;-70
2023/07/30 02:36:28;;;;;;;7.80;5.80;;;20.10;86.50;;;;;;4984313;28;20530;-70
2023/07/30 02:38:54;;;;;;;8.52;6.00;;;20.10;86.50;;;;;;4985266;28;20042;-70
2023/07/30 02:41:20;;;;;;;9.80;6.28;;;20.10;86.50;;;;;;4984975;28;20470;-70
2023/07/30 02:43:46;;;;;;;9.18;6.35;;;20.10;86.50;;;;;;4985492;28;20045;-70
2023/07/30 02:46:12;;;;;;;8.75;6.40;;;20.10;86.30;;;;;;4982503;28;20045;-71
2023/07/30 02:48:38;;;;;;;9.65;6.72;;;20.20;86.50;;;;;;4985106;28;20052;-70
2023/07/30 02:51:03;;;;;;;10.30;5.78;;;20.10;86.40;;;;;;4984606;28;20571;-71
2023/07/30 02:53:29;;;;;;;8.10;5.82;;;20.20;86.50;;;;;;4983519;28;20035;-71
2023/07/30 02:55:55;;;;;;;9.95;5.72;;;20.20;86.50;;;;;;4985557;28;20054;-72
2023/07/30 02:58:21;;;;;;;8.18;5.70;;;20.20;86.60;;;;;;4980845;28;20421;-72
2023/07/30 03:00:47;;;;;;;8.48;5.10;;;20.30;86.80;;;;;;4981000;28;20138;-72
2023/07/30 03:03:13;;;;;;;6.35;5.20;;;20.30;86.60;;;;;;4985645;28;20501;-72
2023/07/30 03:05:42;;;;;;;6.65;5.15;;;20.40;86.80;;;;;;4984369;28;20041;-72
2023/07/30 03:08:08;;;;;;;6.97;4.32;;;20.40;86.80;;;;;;4984133;28;20508;-72
2023/07/30 03:10:36;;;;;;;6.90;5.32;;;20.40;86.60;;;;;;4985012;28;20040;-72
2023/07/30 03:13:02;;;;;;;5.95;4.93;;;20.40;86.60;;;;;;4985522;28;20045;-71
2023/07/30 03:15:28;;;;;;;7.15;5.05;;;20.40;86.50;;;;;;4984454;28;20037;-72
2023/07/30 03:17:54;;;;;;;7.22;4.85;;;20.50;86.50;;;;;;4983705;28;20043;-71
2023/07/30 03:20:20;;;;;;;6.65;5.00;;;20.50;86.30;;;;;;4984333;28;20038;-71
2023/07/30 03:22:46;;;;;;;6.90;4.85;;;20.50;86.20;;;;;;4986178;28;20027;-71
2023/07/30 03:25:12;;;;;;;7.07;4.45;;;20.50;86.00;;;;;;4982900;28;20078;-71
2023/07/30 03:27:38;;;;;;;6.43;5.00;;;20.50;86.00;;;;;;4984008;28;20027;-71
2023/07/30 03:30:05;;;;;;;6.13;4.90;;;20.60;86.00;;;;;;4984688;28;20046;-71
2023/07/30 03:32:31;;;;;;;6.25;4.20;;;20.60;85.90;;;;;;4984637;28;20042;-72
2023/07/30 03:34:57;;;;;;;6.38;4.15;;;20.60;86.10;;;;;;4981162;28;20034;-71
2023/07/30 03:37:22;;;;;;;7.15;4.28;;;20.60;85.90;;;;;;4984532;28;20046;-71
2023/07/30 03:39:48;;;;;;;5.43;3.97;;;20.70;86.20;;;;;;4982990;28;20034;-71
2023/07/30 03:42:14;;;;;;;5.97;4.22;;;20.80;86.20;;;;;;4984867;28;20108;-71
2023/07/30 03:44:40;;;;;;;5.60;4.35;;;20.80;85.90;;;;;;4984635;28;20035;-71
2023/07/30 03:47:07;;;;;;;5.05;3.85;;;20.80;85.90;;;;;;4981900;28;20034;-72
2023/07/30 03:49:33;;;;;;;5.80;3.90;;;20.90;85.80;;;;;;4984122;28;20425;-72
2023/07/30 03:51:59;;;;;;;4.18;3.55;;;20.90;85.60;;;;;;4979163;28;20038;-72
2023/07/30 03:54:25;;;;;;;6.68;4.03;;;21.00;85.60;;;;;;4981138;28;20038;-72
2023/07/30 03:56:53;;;;;;;5.07;3.92;;;21.00;85.30;;;;;;4983896;28;20090;-72
2023/07/30 03:59:19;;;;;;;4.05;3.63;;;21.10;85.30;;;;;;4983729;28;20073;-72
2023/07/30 04:01:45;;;;;;;6.65;3.60;;;21.30;85.20;;;;;;4983180;28;20518;-71
2023/07/30 04:04:11;;;;;;;3.80;3.40;;;21.40;85.00;;;;;;4982665;28;20046;-71
2023/07/30 04:06:37;;;;;;;4.07;3.63;;;21.60;84.60;;;;;;4985128;28;20042;-72
2023/07/30 04:09:03;;;;;;;6.47;3.65;;;21.70;84.50;;;;;;4983234;28;20066;-71
2023/07/30 04:11:29;;;;;;;5.50;3.70;;;21.80;84.20;;;;;;4984238;28;20039;-72
2023/07/30 04:13:57;;;;;;;4.47;3.40;;;21.90;83.90;;;;;;4983921;28;20043;-70
2023/07/30 04:16:23;;;;;;;6.00;3.55;;;22.10;83.90;;;;;;4984148;28;20046;-71
2023/07/30 04:18:49;;;;;;;5.03;3.17;;;22.20;83.40;;;;;;4985173;28;20042;-71
2023/07/30 04:21:15;;;;;;;4.93;3.03;;;22.40;83.60;;;;;;4985671;28;20030;-71
2023/07/30 04:23:41;;;;;;;3.88;3.00;;;22.60;83.40;;;;;;4982598;28;20129;-70
2023/07/30 04:26:07;;;;;;;4.25;3.08;;;22.70;83.20;;;;;;4982390;28;20053;-70
2023/07/30 04:28:33;;;;;;;3.42;3.13;;;22.90;83.00;;;;;;4981975;28;20038;-70
2023/07/30 04:30:59;;;;;;;6.03;3.30;;;23.00;82.60;;;;;;4982659;28;20058;-71
2023/07/30 04:33:26;;;;;;;3.92;2.85;;;23.10;82.30;;;;;;4979221;28;20504;-71
2023/07/30 04:35:53;;;;;;;3.50;2.75;;;23.30;81.80;;;;;;4983085;28;20034;-71
2023/07/30 04:38:19;;;;;;;3.33;2.65;;;23.40;81.70;;;;;;4995383;28;20130;-71
2023/07/30 04:40:46;;;;;;;3.33;2.60;;;23.50;81.40;;;;;;4982681;28;20566;-71
2023/07/30 04:43:14;;;;;;;2.95;2.65;;;23.60;81.00;;;;;;4982790;28;20914;-70
2023/07/30 04:45:42;;;;;;;3.17;2.88;;;23.70;79.70;;;;;;4985131;28;20049;-72
2023/07/30 04:48:07;;;;;;;2.88;2.60;;;23.90;80.10;;;;;;4986696;28;20527;-71
2023/07/30 04:50:34;;;;;;;3.47;2.83;;;24.00;79.80;;;;;;4997864;28;20034;-71
2023/07/30 04:53:00;;;;;;;2.42;2.22;;;24.10;79.30;;;;;;4995570;28;20037;-71
2023/07/30 04:55:26;;;;;;;3.38;2.70;;;24.30;79.10;;;;;;4996019;28;20034;-71
2023/07/30 04:57:52;;;;;;;2.95;2.40;;;24.40;79.00;;;;;;4987215;28;20113;-71
2023/07/30 05:00:18;;;;;;;3.95;2.40;;;24.50;78.50;;;;;;4987491;28;20168;-70
2023/07/30 05:02:45;;;;;;;2.38;2.17;;;24.60;78.20;;;;;;4985990;28;20129;-71
2023/07/30 05:05:11;;;;;;;3.30;2.40;;;24.70;78.00;;;;;;4988467;28;20182;-70
2023/07/30 05:07:37;;;;;;;2.67;2.42;;;24.80;77.60;;;;;;4987745;28;20460;-71
2023/07/30 05:10:06;;;;;;;3.63;2.53;;;24.90;77.40;;;;;;4987832;28;20038;-71
2023/07/30 05:12:32;;;;;;;2.55;2.28;;;25.00;77.00;;;;;;4988037;28;20030;-71
2023/07/30 05:14:58;;;;;;;2.25;2.05;;;25.20;76.60;;;;;;4988166;28;20041;-71
2023/07/30 05:17:24;;;;;;;3.05;2.20;;;25.30;75.40;;;;;;4988018;28;20034;-71
2023/07/30 05:19:50;;;;;;;3.50;2.67;;;25.50;75.40;;;;;;4987569;28;20058;-70
2023/07/30 05:22:15;;;;;;;1.92;1.83;;;25.50;75.30;;;;;;4987926;28;20678;-71
2023/07/30 05:24:41;;;;;;;2.35;2.10;;;25.60;74.90;;;;;;4986965;28;20037;-71
2023/07/30 05:27:07;;;;;;;3.15;1.95;;;25.70;74.40;;;;;;4988041;28;20026;-71
2023/07/30 05:29:33;;;;;;;2.53;2.33;;;25.60;74.50;;;;;;4987331;28;20089;-71
2023/07/30 05:31:59;;;;;;;3.22;2.25;;;25.60;74.40;;;;;;4985763;28;20113;-71
2023/07/30 05:34:25;;;;;;;2.30;2.00;;;25.70;73.80;;;;;;4986671;28;20050;-71
2023/07/30 05:36:51;;;;;;;3.15;1.90;;;25.80;73.90;;;;;;4986960;28;20038;-70
2023/07/30 05:39:17;;;;;;;3.45;2.03;;;25.80;73.30;;;;;;4987666;28;20532;-71
2023/07/30 05:41:43;;;;;;;3.33;2.40;;;25.80;73.00;;;;;;4987156;28;20523;-71
2023/07/30 05:44:09;;;;;;;4.40;2.30;;;25.80;73.50;;;;;;4987402;28;20133;-71
2023/07/30 05:46:35;;;;;;;2.40;2.05;;;25.80;74.00;;;;;;4985397;28;20760;-71
2023/07/30 05:49:00;;;;;;;3.83;2.38;;;25.80;73.00;;;;;;4987829;28;20093;-71
2023/07/30 05:51:26;;;;;;;4.05;2.40;;;25.80;73.70;;;;;;4987802;28;20022;-71
2023/07/30 05:53:52;;;;;;;4.22;2.13;;;25.80;73.50;;;;;;4986075;28;21809;-70
2023/07/30 05:56:19;;;;;;;2.58;1.98;;;25.80;74.10;;;;;;4987038;28;20062;-71
2023/07/30 05:58:46;;;;;;;3.65;2.05;;;25.80;73.80;;;;;;4984966;28;20050;-71
2023/07/30 06:01:12;;;;;;;2.05;1.90;;;25.90;73.70;;;;;;4986385;28;20125;-72
2023/07/30 06:03:38;;;;;;;3.25;1.98;;;25.90;73.70;;;;;;4986314;28;20459;-72
2023/07/30 06:06:04;;;;;;;2.92;1.70;;;26.00;73.90;;;;;;4987151;28;20042;-71
2023/07/30 06:08:30;;;;;;;2.60;1.70;;;26.00;73.80;;;;;;4983919;28;20027;-71
2023/07/30 06:11:01;;;;;;;7.00;2.28;;;26.00;73.70;;;;;;4985839;28;20128;-71
2023/07/30 06:13:27;;;;;;;2.75;1.70;;;26.00;73.80;;;;;;4985393;28;20134;-72
2023/07/30 06:15:53;;;;;;;4.13;2.10;;;26.10;73.80;;;;;;4985583;28;20802;-71
2023/07/30 06:18:19;;;;;;;2.08;1.90;;;26.10;73.70;;;;;;4986489;28;20038;-72
2023/07/30 06:20:45;;;;;;;3.03;1.88;;;26.10;73.00;;;;;;4986053;28;21542;-71
2023/07/30 06:23:11;;;;;;;2.22;2.03;;;26.10;73.40;;;;;;4986201;28;20045;-72
2023/07/30 06:25:37;;;;;;;8.27;2.22;;;26.20;72.90;;;;;;4984244;28;20038;-73
2023/07/30 06:28:04;;;;;;;4.05;1.90;;;26.30;73.10;;;;;;4969890;28;20041;-73
2023/07/30 06:30:31;;;;;;;3.67;1.80;;;26.30;73.10;;;;;;4987251;28;20445;-72
2023/07/30 06:32:57;;;;;;;2.90;1.85;;;26.40;73.20;;;;;;4984195;28;20088;-71
2023/07/30 06:35:23;;;;;;;3.17;1.85;;;26.40;73.20;;;;;;4985791;28;20042;-72
2023/07/30 06:37:50;;;;;;;3.60;1.85;;;26.40;74.00;;;;;;4985883;28;20128;-71
2023/07/30 06:40:16;;;;;;;2.97;1.58;;;26.40;73.90;;;;;;4985484;28;20030;-71
2023/07/30 06:42:42;;;;;;;2.72;1.98;;;26.40;72.30;;;;;;4985790;28;20081;-71
2023/07/30 06:45:08;;;;;;;6.13;1.83;;;26.50;72.80;;;;;;4985625;28;20146;-73
2023/07/30 06:47:34;;;;;;;4.40;1.83;;;26.50;72.60;;;;;;4985366;28;20038;-71
2023/07/30 06:50:00;;;;;;;3.72;1.92;;;26.50;72.80;;;;;;4986744;28;20038;-75
2023/07/30 06:52:26;;;;;;;2.35;1.58;;;26.50;71.60;;;;;;4986015;28;20038;-76
2023/07/30 06:54:52;;;;;;;3.25;1.92;;;26.40;70.30;;;;;;4985911;28;20097;-77
2023/07/30 06:57:18;;;;;;;5.10;1.83;;;26.30;70.00;;;;;;4986075;28;20551;-76
2023/07/30 06:59:44;;;;;;;4.53;1.85;;;26.10;68.10;;;;;;4985059;28;20030;-79
2023/07/30 07:02:10;;;;;;;4.32;2.03;;;26.10;71.00;;;;;;4984145;28;20126;-76
2023/07/30 07:04:35;;;;;;;4.28;2.00;;;26.20;70.90;;;;;;4983936;28;20066;-75
2023/07/30 07:07:03;;;;;;;2.42;1.65;;;26.10;69.60;;;;;;4985381;28;20042;-75
2023/07/30 07:09:29;;;;;;;3.25;1.95;;;26.10;69.20;;;;;;4984142;28;20030;-74
2023/07/30 07:11:55;;;;;;;2.33;1.98;;;26.00;68.90;;;;;;4982859;28;20535;-75
2023/07/30 07:14:21;;;;;;;2.30;1.80;;;26.00;68.70;;;;;;4985721;28;20043;-76
2023/07/30 07:16:48;;;;;;;3.20;1.60;;;26.00;70.90;;;;;;4984902;28;20035;-76
2023/07/30 07:19:14;;;;;;;2.22;2.00;;;26.10;68.50;;;;;;4978244;28;20058;-77
2023/07/30 07:21:40;;;;;;;4.05;2.10;;;26.00;70.00;;;;;;4984553;28;20026;-75
2023/07/30 07:24:06;;;;;;;2.25;2.00;;;25.90;68.90;;;;;;4988256;28;20050;-81
2023/07/30 07:26:32;;;;;;;3.70;2.00;;;25.90;68.70;;;;;;4985277;28;20031;-78
2023/07/30 07:28:58;;;;;;;3.00;1.95;;;25.90;69.00;;;;;;5015505;28;20153;-81
2023/07/30 07:31:24;;;;;;;2.35;1.92;;;25.90;69.10;;;;;;5000458;28;20044;-80
2023/07/30 07:33:51;;;;;;;4.85;2.60;;;25.90;69.30;;;;;;5001671;28;20034;-77
2023/07/30 07:36:17;;;;;;;3.60;2.10;;;25.80;69.00;;;;;;5000506;28;20377;-79
2023/07/30 07:38:43;;;;;;;2.25;1.67;;;25.70;68.00;;;;;;4986189;28;20037;-80
2023/07/30 07:41:16;;;;;;;3.40;1.90;;;25.70;67.90;;;;;;5002146;28;20129;-77
2023/07/30 07:43:44;;;;;;;2.08;1.73;;;25.60;68.80;;;;;;5002087;28;20026;-80
2023/07/30 07:46:13;;;;;;;1.98;1.67;;;25.70;69.10;;;;;;4999913;28;20081;-85
2023/07/30 07:48:43;;;;;;;3.17;1.90;;;25.70;68.80;;;;;;4997523;28;20069;-82
2023/07/30 07:51:10;;;;;;;3.65;1.80;;;25.70;67.50;;;;;;4999313;28;20515;-81
2023/07/30 07:53:37;;;;;;;2.00;1.80;;;25.70;67.60;;;;;;4997680;28;20043;-83
2023/07/30 07:56:03;;;;;;;2.88;2.20;;;25.70;67.70;;;;;;4998219;28;20041;-85
2023/07/30 07:58:30;;;;;;;3.08;1.85;;;25.60;67.60;;;;;;4999429;28;20042;-82
2023/07/30 08:00:56;;;;;;;2.30;1.92;;;25.60;68.50;;;;;;4997656;28;20188;-82
2023/07/30 08:03:23;;;;;;;1.88;1.58;;;25.50;68.30;;;;;;4999706;28;20033;-82
2023/07/30 08:05:49;;;;;;;1.73;1.60;;;25.50;67.80;;;;;;4999428;28;20042;-82
2023/07/30 08:08:16;;;;;;;2.47;1.60;;;25.50;67.40;;;;;;4995523;28;20137;-83
2023/07/30 08:10:47;;;;;;;3.92;1.80;;;25.50;67.70;;;;;;4999329;28;20256;-80
2023/07/30 08:13:13;;;;;;;2.45;1.70;;;25.40;66.10;;;;;;4998249;28;20121;-76
2023/07/30 08:15:39;;;;;;;3.17;2.20;;;25.30;66.90;;;;;;4999010;28;20045;-77
2023/07/30 08:18:05;;;;;;;3.92;2.10;;;25.30;67.40;;;;;;5000149;28;20037;-81
2023/07/30 08:20:31;;;;;;;3.63;1.95;;;25.40;67.80;;;;;;4998372;28;20044;-82
2023/07/30 08:22:57;;;;;;;5.05;1.70;;;25.40;67.50;;;;;;4998851;28;20069;-79
2023/07/30 08:25:23;;;;;;;2.95;1.90;;;25.50;68.00;;;;;;4997033;28;20061;-79
2023/07/30 08:27:49;;;;;;;3.90;1.83;;;25.50;67.20;;;;;;4998000;28;20034;-81
2023/07/30 08:30:15;;;;;;;3.00;2.22;;;25.60;67.20;;;;;;4984031;28;20030;-81
2023/07/30 08:32:43;;;;;;;4.25;1.80;;;25.60;68.10;;;;;;5002448;28;20041;-75
2023/07/30 08:35:09;;;;;;;5.22;2.00;;;25.70;67.80;;;;;;4997137;28;20767;-78
2023/07/30 08:37:35;;;;;;;3.50;2.15;;;25.70;67.90;;;;;;4996717;28;20316;-75
2023/07/30 08:40:01;;;;;;;5.45;2.15;;;25.70;67.90;;;;;;4999025;28;20052;-78
2023/07/30 08:42:27;;;;;;;3.08;1.65;;;25.70;65.10;;;;;;4996144;28;20076;-77
2023/07/30 08:44:53;;;;;;;3.67;2.05;;;25.70;67.20;;;;;;4999180;28;20034;-80
2023/07/30 08:47:19;;;;;;;1.98;1.80;;;25.70;65.00;;;;;;4998812;28;20038;-77
2023/07/30 08:49:45;;;;;;;3.83;2.20;;;25.60;65.60;;;;;;5000036;28;20062;-77
2023/07/30 08:52:11;;;;;;;3.78;1.98;;;25.70;66.80;;;;;;4998566;28;20679;-78
2023/07/30 08:54:39;;;;;;;3.70;1.73;;;25.70;64.40;;;;;;4995883;28;20042;-75
2023/07/30 08:57:06;;;;;;;1.65;1.55;;;25.70;65.10;;;;;;4981524;28;20046;-75
2023/07/30 08:59:46;;;;;;;2.40;1.60;;;25.60;64.70;;;;;;4981444;28;20034;-76
2023/07/30 09:02:26;;;;;;;3.45;1.80;;;25.50;65.70;;;;;;4980119;28;20133;-74
2023/07/30 09:04:56;;;;;;;2.47;1.70;;;25.60;65.80;;;;;;4982320;28;20049;-74
2023/07/30 09:07:24;;;;;;;3.00;1.60;;;25.50;65.70;;;;;;4984513;28;20767;-73
2023/07/30 09:09:50;;;;;;;2.83;1.70;;;25.50;65.70;;;;;;4980979;28;20169;-74
2023/07/30 09:12:16;;;;;;;1.60;1.50;;;25.50;66.00;;;;;;4979074;28;20081;-73
2023/07/30 09:14:46;;;;;;;2.03;1.70;;;25.50;65.70;;;;;;4978837;28;20129;-73
2023/07/30 09:17:18;;;;;;;3.03;1.55;;;25.40;66.20;;;;;;4982532;28;20046;-73
2023/07/30 09:19:46;;;;;;;4.20;1.60;;;25.30;65.70;;;;;;4982289;28;20046;-73
2023/07/30 09:22:13;;;;;;;2.92;1.67;;;25.30;65.90;;;;;;4982556;28;20523;-74
2023/07/30 09:24:44;;;;;;;2.40;1.88;;;25.30;65.60;;;;;;4980652;28;20045;-73
2023/07/30 09:27:10;;;;;;;1.77;1.67;;;25.30;65.40;;;;;;4982144;28;20052;-73
2023/07/30 09:29:36;;;;;;;3.22;1.48;;;25.30;65.20;;;;;;4981976;28;20037;-74
2023/07/30 09:32:02;;;;;;;2.78;1.83;;;25.20;64.60;;;;;;4981237;28;20780;-74
2023/07/30 09:34:30;;;;;;;1.60;1.50;;;25.20;65.80;;;;;;4984881;28;20027;-73
2023/07/30 09:36:56;;;;;;;3.25;1.63;;;25.20;66.10;;;;;;4983282;28;20027;-72
2023/07/30 09:39:24;;;;;;;4.22;1.80;;;25.20;65.80;;;;;;4986172;28;20065;-76
2023/07/30 09:41:52;;;;;;;6.93;1.55;;;25.30;65.70;;;;;;4968398;28;20525;-73
2023/07/30 09:44:20;;;;;;;4.03;1.88;;;25.20;64.50;;;;;;4988079;28;20073;-73
2023/07/30 09:46:48;;;;;;;4.95;2.05;;;25.20;66.60;;;;;;4988066;28;20121;-73
2023/07/30 09:49:15;;;;;;;7.78;2.10;;;25.30;66.60;;;;;;4983991;28;20041;-73
2023/07/30 09:51:41;;;;;;;3.28;2.70;;;25.30;67.80;;;;;;4986366;28;20121;-73
2023/07/30 09:54:16;;;;;;;3.90;2.22;;;25.30;68.10;;;;;;4987600;28;20100;-73
2023/07/30 09:56:42;;;;;;;1.77;1.52;;;25.30;67.20;;;;;;4987074;28;20546;-74
2023/07/30 09:59:09;;;;;;;4.07;2.08;;;25.20;65.20;;;;;;4985759;28;20042;-73
2023/07/30 10:01:45;;;;;;;3.00;2.10;;;25.30;67.30;;;;;;4985702;28;20042;-72
2023/07/30 10:04:11;;;;;;;4.40;1.77;;;25.30;67.80;;;;;;4985701;28;20038;-73
2023/07/30 10:07:01;;;;;;;2.50;1.95;;;25.40;67.10;;;;;;4986610;28;20543;-73
2023/07/30 10:09:33;;;;;;;2.15;1.80;;;25.40;66.30;;;;;;4985716;28;20047;-73
2023/07/30 10:12:01;;;;;;;1.50;1.40;;;25.40;66.10;;;;;;4986493;28;20049;-73
2023/07/30 10:14:28;;;;;;;2.10;1.73;;;25.50;66.70;;;;;;4985994;28;20060;-72
2023/07/30 10:16:56;;;;;;;1.63;1.42;;;25.40;65.90;;;;;;4985262;28;20073;-71
2023/07/30 10:19:29;;;;;;;1.42;1.33;;;25.50;65.80;;;;;;4986456;28;20590;-72
2023/07/30 10:22:20;;;;;;;1.77;1.63;;;25.40;66.10;;;;;;4985672;28;20043;-72
2023/07/30 10:25:03;;;;;;;1.60;1.50;;;25.40;66.50;;;;;;4986820;28;20041;-72
2023/07/30 10:27:38;;;;;;;2.42;1.30;;;25.50;66.10;;;;;;4985851;28;20040;-72
2023/07/30 10:30:14;;;;;;;;;;;25.40;65.20;;;;;;4986466;28;20046;-72
2023/07/30 10:33:00;;;;;;;1.73;1.30;;;25.40;66.00;;;;;;4984713;28;20284;-72
2023/07/30 10:35:40;;;;;;;1.73;1.50;;;25.40;65.50;;;;;;4986160;28;20405;-73
2023/07/30 10:38:20;;;;;;;2.05;1.42;;;25.40;64.90;;;;;;4985364;28;20157;-72
2023/07/30 10:41:21;;;;;;;3.10;1.50;;;25.40;64.00;;;;;;4985007;28;20096;-72
2023/07/30 10:43:49;;;;;;;2.45;1.50;;;25.40;64.90;;;;;;4946390;28;20476;-72
2023/07/30 10:46:18;;;;;;;3.22;1.35;;;25.40;64.80;;;;;;4945468;29;20035;-72
2023/07/30 10:48:46;;;;;;;3.80;1.30;;;25.30;63.50;;;;;;4945577;29;20041;-72
2023/07/30 10:51:17;;;;;;;2.35;1.23;;;25.20;62.60;;;;;;4946368;29;20126;-72
2023/07/30 10:53:47;;;;;;;1.50;1.40;;;25.20;63.80;;;;;;4945388;29;20438;-72
2023/07/30 10:56:15;;;;;;;1.40;1.30;;;25.20;63.30;;;;;;4945562;29;20035;-72
2023/07/30 10:58:43;;;;;;;2.55;1.30;;;25.20;63.80;;;;;;4944843;29;20589;-72
2023/07/30 11:01:09;;;;;;;2.53;1.42;;;25.10;62.20;;;;;;4945122;29;20190;-73
2023/07/30 11:03:37;;;;;;;2.92;1.70;;;25.10;62.60;;;;;;4945733;29;20118;-72
2023/07/30 11:06:03;;;;;;;1.65;1.20;;;25.00;63.00;;;;;;4945949;29;20063;-72
2023/07/30 11:08:37;;;;;;;1.35;1.25;;;25.00;63.50;;;;;;4945698;29;20042;-72
2023/07/30 11:11:05;;;;;;;2.28;1.50;;;25.10;63.30;;;;;;4944796;29;20075;-73
2023/07/30 11:13:48;;;;;;;1.70;1.60;;;25.00;61.60;;;;;;4945629;29;20100;-72
2023/07/30 11:16:15;;;;;;;3.58;1.50;;;25.00;62.40;;;;;;4945125;29;20031;-72
2023/07/30 11:18:42;;;;;;;1.33;1.23;;;25.00;63.30;;;;;;4980840;28;20057;-73
2023/07/30 11:21:14;;;;;;;1.88;1.30;;;25.00;62.80;;;;;;4984579;28;20062;-72
2023/07/30 11:23:44;;;;;;;2.67;1.52;;;25.00;61.30;;;;;;4984918;28;20034;-72
2023/07/30 11:26:14;;;;;;;1.60;1.20;;;25.10;61.90;;;;;;4985405;28;20054;-71
2023/07/30 11:28:41;;;;;;;2.03;1.50;;;25.00;61.30;;;;;;4985035;28;20129;-74
2023/07/30 11:31:19;;;;;;;1.40;1.30;;;25.00;61.50;;;;;;4984150;28;20045;-72
2023/07/30 11:33:46;;;;;;;5.35;1.73;;;25.00;61.00;;;;;;4983170;28;20165;-73
2023/07/30 11:36:24;;;;;;;3.30;1.75;;;24.90;61.20;;;;;;4983756;28;20030;-73
2023/07/30 11:38:52;;;;;;;1.42;1.30;;;25.00;62.30;;;;;;4985499;28;20038;-73
2023/07/30 11:41:19;;;;;;;2.63;1.48;;;25.00;62.50;;;;;;4984611;28;20030;-72
2023/07/30 11:43:45;;;;;;;3.92;1.20;;;25.00;62.80;;;;;;4983841;28;20089;-72
2023/07/30 11:46:16;;;;;;;2.80;1.20;;;25.00;63.40;;;;;;4984462;28;20034;-72
2023/07/30 11:48:47;;;;;;;1.52;1.40;;;25.00;62.30;;;;;;4984355;28;20046;-71
2023/07/30 11:51:22;;;;;;;2.35;1.23;;;25.10;62.00;;;;;;4982864;28;20758;-72
2023/07/30 11:54:06;;;;;;;1.65;1.45;;;25.00;60.30;;;;;;4976238;28;20385;-72
2023/07/30 11:56:36;;;;;;;3.10;1.40;;;25.00;60.70;;;;;;4975655;28;20521;-76
2023/07/30 11:59:06;;;;;;;1.65;1.15;;;25.00;61.30;;;;;;4978700;28;20054;-74
2023/07/30 12:01:34;;;;;;;1.48;1.10;;;25.00;61.30;;;;;;4979263;28;20477;-76
2023/07/30 12:04:01;;;;;;;3.47;1.60;;;25.00;61.30;;;;;;4978069;28;22803;-75
2023/07/30 12:06:43;;;;;;;2.40;1.17;;;25.00;62.10;;;;;;4977395;28;20066;-76
2023/07/30 12:09:22;;;;;;;3.75;1.40;;;25.00;62.40;;;;;;4977155;28;20914;-74
2023/07/30 12:11:50;;;;;;;1.50;1.30;;;24.90;62.20;;;;;;4978092;28;20628;-73
2023/07/30 12:14:17;;;;;;;1.73;1.58;;;24.80;61.50;;;;;;4979194;28;20065;-75
2023/07/30 12:16:43;;;;;;;1.40;1.30;;;24.80;62.20;;;;;;4978602;28;20065;-75
2023/07/30 12:19:09;;;;;;;3.58;1.27;;;24.80;62.80;;;;;;4978416;28;20077;-76
2023/07/30 12:21:36;;;;;;;3.00;1.60;;;24.80;63.30;;;;;;4979418;28;20125;-76
2023/07/30 12:24:03;;;;;;;1.85;1.45;;;24.80;63.30;;;;;;4978506;28;20049;-75
2023/07/30 12:26:29;;;;;;;2.25;1.50;;;24.80;62.50;;;;;;4978220;28;20402;-77
2023/07/30 12:28:55;;;;;;;3.58;1.67;;;24.80;62.20;;;;;;4979195;28;20136;-77
2023/07/30 12:31:21;;;;;;;3.42;1.70;;;24.80;63.10;;;;;;4977890;28;20045;-76
2023/07/30 12:33:47;;;;;;;1.88;1.35;;;24.80;62.20;;;;;;4978000;28;20129;-77
2023/07/30 12:36:13;;;;;;;1.65;1.55;;;24.80;62.50;;;;;;4980822;28;20026;-76
2023/07/30 12:38:40;;;;;;;1.90;1.58;;;24.80;63.00;;;;;;4978657;28;20094;-77
2023/07/30 12:41:06;;;;;;;1.20;1.05;;;24.80;60.80;;;;;;4978739;28;20050;-78
2023/07/30 12:43:32;;;;;;;1.95;1.30;;;24.80;62.70;;;;;;4978369;28;20058;-73
2023/07/30 12:45:57;;;;;;;1.25;1.10;;;24.80;61.70;;;;;;4978731;28;20907;-74
2023/07/30 12:48:23;;;;;;;1.58;1.23;;;24.80;61.80;;;;;;4979138;28;20612;-76
2023/07/30 12:50:49;;;;;;;1.75;1.65;;;24.70;61.00;;;;;;4977177;28;20042;-76